PWSweather.com
Personal Weather Stations
Station Observations
KTXDECATUR
Wildwood, Decatur, TX 76234

WildwoodDecatur, TX 76234

Lat: 33.2634, Lon: -97.6651

Elevation: 800

Station Type: Davis Vantage Pro 2

http://weather.wildwoodnaturist.com

Latest ConditionsUpdated 7:00:01 PM CDT Saturday, May 28, 2016
Currently Today's Max Today's Min Today's Average
Temperature 85.5°F29.7°C 87.2°F30.7°C 65.0°F18.3°C 73.8°F23.2°C
Dew Point 75.0°F23.9°C 77.0°F25.0°C 62.9°F17.2°C 69.1°F20.6°C
Winds 4.6 mph SE7.4 kmh SE 10.4 mph SE16.7 kmh SE - 4.1 mph 6.6 kmh
Wind Gusts 5.8 mph9.3 kmh 13.8 mph22.2 kmh - -
Humidity 71% 96% 68% 86%
Pressure 29.85 in1010.8 mb 29.89 in1012.2 mb 29.74 in1007.1 mb -
Hour Temp Dew Point Humidity Winds Wind Gusts Pressure Precip Precip Rate Daily Precip Total
07:00 PM 85.5°F29.7°C 75.0°F23.9°C 71% 4.6 mph SE7.4 kmh SE 5.8 mph9.3 kmh 29.85 in1010.8 mb - 0.00 in0.0 mm 0.00 in0.0 mm
06:50 PM 85.4°F29.7°C 74.5°F23.6°C 70% 4.6 mph SE7.4 kmh SE 5.8 mph9.3 kmh 29.85 in1010.8 mb - 0.00 in0.0 mm 0.00 in0.0 mm
06:45 PM 85.5°F29.7°C 74.5°F23.6°C 70% 2.3 mph SSE3.7 kmh SSE 4.6 mph7.4 kmh 29.85 in1010.8 mb - 0.00 in0.0 mm 0.00 in0.0 mm
06:40 PM 85.5°F29.7°C 74.2°F23.4°C 69% 5.8 mph SE9.3 kmh SE 10.4 mph16.7 kmh 29.85 in1010.8 mb - 0.00 in0.0 mm 0.00 in0.0 mm
06:30 PM 85.8°F29.9°C 75.7°F24.3°C 72% 6.9 mph SE11.1 kmh SE 9.2 mph14.8 kmh 29.84 in1010.5 mb - 0.00 in0.0 mm 0.00 in0.0 mm
06:20 PM 85.5°F29.7°C 75.0°F23.9°C 71% 5.8 mph SSE9.3 kmh SSE 9.2 mph14.8 kmh 29.84 in1010.5 mb - 0.00 in0.0 mm 0.00 in0.0 mm
06:15 PM 85.4°F29.7°C 75.3°F24.1°C 72% 4.6 mph SE7.4 kmh SE 8.1 mph13.0 kmh 29.84 in1010.5 mb - 0.00 in0.0 mm 0.00 in0.0 mm
06:10 PM 85.3°F29.6°C 75.7°F24.3°C 73% 3.5 mph SE5.6 kmh SE 6.9 mph11.1 kmh 29.85 in1010.8 mb - 0.00 in0.0 mm 0.00 in0.0 mm
06:00 PM 86.3°F30.2°C 75.8°F24.3°C 71% 4.6 mph SE7.4 kmh SE 9.2 mph14.8 kmh 29.84 in1010.5 mb - 0.00 in0.0 mm 0.00 in0.0 mm
05:50 PM 86.3°F30.2°C 75.8°F24.3°C 71% 2.3 mph SSE3.7 kmh SSE 4.6 mph7.4 kmh 29.84 in1010.5 mb - 0.00 in0.0 mm 0.00 in0.0 mm
05:45 PM 86.3°F30.2°C 76.6°F24.8°C 73% 4.6 mph ESE7.4 kmh ESE 8.1 mph13.0 kmh 29.84 in1010.5 mb - 0.00 in0.0 mm 0.00 in0.0 mm
05:40 PM 86.3°F30.2°C 76.2°F24.6°C 72% 3.5 mph SE5.6 kmh SE 5.8 mph9.3 kmh 29.84 in1010.5 mb - 0.00 in0.0 mm 0.00 in0.0 mm
05:30 PM 86.6°F30.3°C 75.7°F24.3°C 70% 6.9 mph SE11.1 kmh SE 6.9 mph11.1 kmh 29.84 in1010.5 mb - 0.00 in0.0 mm 0.00 in0.0 mm
05:20 PM 87.2°F30.7°C 76.2°F24.6°C 70% 5.8 mph ESE9.3 kmh ESE 6.9 mph11.1 kmh 29.84 in1010.5 mb - 0.00 in0.0 mm 0.00 in0.0 mm
05:15 PM 87.2°F30.7°C 76.2°F24.6°C 70% 3.5 mph SE5.6 kmh SE 5.8 mph9.3 kmh 29.84 in1010.5 mb - 0.00 in0.0 mm 0.00 in0.0 mm
05:10 PM 86.9°F30.5°C 76.4°F24.7°C 71% 4.6 mph SE7.4 kmh SE 4.6 mph7.4 kmh 29.84 in1010.5 mb - 0.00 in0.0 mm 0.00 in0.0 mm
05:00 PM 86.8°F30.4°C 75.0°F23.9°C 68% 1.2 mph SE1.9 kmh SE 3.5 mph5.6 kmh 29.84 in1010.5 mb - 0.00 in0.0 mm 0.00 in0.0 mm
04:50 PM 86.7°F30.4°C 75.3°F24.1°C 69% 5.8 mph SE9.3 kmh SE 9.2 mph14.8 kmh 29.84 in1010.5 mb - 0.00 in0.0 mm 0.00 in0.0 mm
04:45 PM 86.6°F30.3°C 75.6°F24.2°C 70% 4.6 mph SE7.4 kmh SE 5.8 mph9.3 kmh 29.84 in1010.5 mb - 0.00 in0.0 mm 0.00 in0.0 mm
04:40 PM 86.2°F30.1°C 75.7°F24.3°C 71% 3.5 mph S5.6 kmh S 4.6 mph7.4 kmh 29.84 in1010.5 mb - 0.00 in0.0 mm 0.00 in0.0 mm
04:30 PM 86.0°F30.0°C 75.5°F24.2°C 71% 2.3 mph ESE3.7 kmh ESE 8.1 mph13.0 kmh 29.84 in1010.5 mb - 0.00 in0.0 mm 0.00 in0.0 mm
04:20 PM 86.1°F30.1°C 76.0°F24.4°C 72% 2.3 mph SSE3.7 kmh SSE 3.5 mph5.6 kmh 29.84 in1010.5 mb - 0.00 in0.0 mm 0.00 in0.0 mm
04:15 PM 85.6°F29.8°C 75.1°F23.9°C 71% 3.5 mph S5.6 kmh S 5.8 mph9.3 kmh 29.84 in1010.5 mb - 0.00 in0.0 mm 0.00 in0.0 mm
04:10 PM 85.5°F29.7°C 75.4°F24.1°C 72% 5.8 mph S9.3 kmh S 10.4 mph16.7 kmh 29.84 in1010.5 mb - 0.00 in0.0 mm 0.00 in0.0 mm
04:00 PM 85.2°F29.6°C 75.5°F24.2°C 73% 3.5 mph SE5.6 kmh SE 5.8 mph9.3 kmh 29.85 in1010.8 mb - 0.00 in0.0 mm 0.00 in0.0 mm
03:50 PM 85.6°F29.8°C 76.4°F24.7°C 74% 5.8 mph S9.3 kmh S 9.2 mph14.8 kmh 29.85 in1010.8 mb - 0.00 in0.0 mm 0.00 in0.0 mm
03:45 PM 85.7°F29.8°C 76.5°F24.7°C 74% 4.6 mph SSE7.4 kmh SSE 6.9 mph11.1 kmh 29.85 in1010.8 mb - 0.00 in0.0 mm 0.00 in0.0 mm
03:40 PM 85.5°F29.7°C 77.0°F25.0°C 76% 4.6 mph SE7.4 kmh SE 9.2 mph14.8 kmh 29.85 in1010.8 mb - 0.00 in0.0 mm 0.00 in0.0 mm
03:30 PM 84.5°F29.2°C 76.1°F24.5°C 76% 4.6 mph SSE7.4 kmh SSE 5.8 mph9.3 kmh 29.85 in1010.8 mb - 0.00 in0.0 mm 0.00 in0.0 mm
03:20 PM 85.1°F29.5°C 76.3°F24.6°C 75% 4.6 mph S7.4 kmh S 9.2 mph14.8 kmh 29.85 in1010.8 mb - 0.00 in0.0 mm 0.00 in0.0 mm
03:15 PM 85.0°F29.4°C 77.0°F25.0°C 77% 4.6 mph S7.4 kmh S 6.9 mph11.1 kmh 29.86 in1011.2 mb - 0.00 in0.0 mm 0.00 in0.0 mm
03:10 PM 84.5°F29.2°C 76.5°F24.7°C 77% 3.5 mph SSE5.6 kmh SSE 4.6 mph7.4 kmh 29.85 in1010.8 mb - 0.00 in0.0 mm 0.00 in0.0 mm
03:00 PM 84.2°F29.0°C 76.2°F24.6°C 77% 6.9 mph SSE11.1 kmh SSE 11.5 mph18.5 kmh 29.86 in1011.2 mb - 0.00 in0.0 mm 0.00 in0.0 mm
02:50 PM 84.3°F29.1°C 76.6°F24.8°C 78% 5.8 mph SSE9.3 kmh SSE 6.9 mph11.1 kmh 29.86 in1011.2 mb - 0.00 in0.0 mm 0.00 in0.0 mm
02:45 PM 83.9°F28.8°C 75.6°F24.2°C 76% 5.8 mph S9.3 kmh S 10.4 mph16.7 kmh 29.86 in1011.2 mb - 0.00 in0.0 mm 0.00 in0.0 mm
02:00 PM 82.8°F28.2°C 75.3°F24.1°C 78% 6.9 mph SSE11.1 kmh SSE 6.9 mph11.1 kmh 29.87 in1011.5 mb - 0.00 in0.0 mm 0.00 in0.0 mm
01:50 PM 82.1°F27.8°C 74.9°F23.8°C 79% 5.8 mph SE9.3 kmh SE 8.1 mph13.0 kmh 29.87 in1011.5 mb - 0.00 in0.0 mm 0.00 in0.0 mm
01:45 PM 81.7°F27.6°C 74.9°F23.8°C 80% 3.5 mph SSE5.6 kmh SSE 4.6 mph7.4 kmh 29.87 in1011.5 mb - 0.00 in0.0 mm 0.00 in0.0 mm
01:40 PM 81.6°F27.6°C 74.8°F23.8°C 80% 3.5 mph SSE5.6 kmh SSE 3.5 mph5.6 kmh 29.87 in1011.5 mb - 0.00 in0.0 mm 0.00 in0.0 mm
01:30 PM 81.4°F27.4°C 74.3°F23.5°C 79% 4.6 mph SE7.4 kmh SE 8.1 mph13.0 kmh 29.88 in1011.9 mb - 0.00 in0.0 mm 0.00 in0.0 mm
01:20 PM 81.0°F27.2°C 74.3°F23.5°C 80% 6.9 mph S11.1 kmh S 9.2 mph14.8 kmh 29.87 in1011.5 mb - 0.00 in0.0 mm 0.00 in0.0 mm
01:15 PM 80.8°F27.1°C 74.8°F23.8°C 82% 8.1 mph S13.0 kmh S 10.4 mph16.7 kmh 29.88 in1011.9 mb - 0.00 in0.0 mm 0.00 in0.0 mm
01:10 PM 80.5°F26.9°C 73.8°F23.2°C 80% 4.6 mph SE7.4 kmh SE 9.2 mph14.8 kmh 29.88 in1011.9 mb - 0.00 in0.0 mm 0.00 in0.0 mm
01:00 PM 80.6°F27.0°C 74.6°F23.7°C 82% 4.6 mph S7.4 kmh S 6.9 mph11.1 kmh 29.88 in1011.9 mb - 0.00 in0.0 mm 0.00 in0.0 mm
12:50 PM 80.0°F26.7°C 73.6°F23.1°C 81% 9.2 mph SE14.8 kmh SE 10.4 mph16.7 kmh 29.88 in1011.9 mb - 0.00 in0.0 mm 0.00 in0.0 mm
12:45 PM 79.9°F26.6°C 73.2°F22.9°C 80% 3.5 mph ESE5.6 kmh ESE 10.4 mph16.7 kmh 29.88 in1011.9 mb - 0.00 in0.0 mm 0.00 in0.0 mm
12:40 PM 80.2°F26.8°C 73.8°F23.2°C 81% 4.6 mph SE7.4 kmh SE 5.8 mph9.3 kmh 29.88 in1011.9 mb - 0.00 in0.0 mm 0.00 in0.0 mm
12:30 PM 80.2°F26.8°C 73.5°F23.1°C 80% 9.2 mph SE14.8 kmh SE 12.7 mph20.4 kmh 29.88 in1011.9 mb - 0.00 in0.0 mm 0.00 in0.0 mm
12:20 PM 80.0°F26.7°C 73.3°F22.9°C 80% 6.9 mph S11.1 kmh S 10.4 mph16.7 kmh 29.88 in1011.9 mb - 0.00 in0.0 mm 0.00 in0.0 mm
12:15 PM 79.7°F26.5°C 72.6°F22.6°C 79% 8.1 mph S13.0 kmh S 10.4 mph16.7 kmh 29.88 in1011.9 mb - 0.00 in0.0 mm 0.00 in0.0 mm
12:10 PM 79.5°F26.4°C 73.2°F22.9°C 81% 6.9 mph S11.1 kmh S 10.4 mph16.7 kmh 29.88 in1011.9 mb - 0.00 in0.0 mm 0.00 in0.0 mm
12:00 PM 78.7°F25.9°C 72.0°F22.2°C 80% 5.8 mph SE9.3 kmh SE 10.4 mph16.7 kmh 29.89 in1012.2 mb - 0.00 in0.0 mm 0.00 in0.0 mm
11:50 AM 78.8°F26.0°C 72.1°F22.3°C 80% 9.2 mph S14.8 kmh S 11.5 mph18.5 kmh 29.89 in1012.2 mb - 0.00 in0.0 mm 0.00 in0.0 mm
11:45 AM 78.7°F25.9°C 72.0°F22.2°C 80% 5.8 mph S9.3 kmh S 8.1 mph13.0 kmh 29.89 in1012.2 mb - 0.00 in0.0 mm 0.00 in0.0 mm
11:40 AM 78.6°F25.9°C 72.3°F22.4°C 81% 5.8 mph SSE9.3 kmh SSE 8.1 mph13.0 kmh 29.88 in1011.9 mb - 0.00 in0.0 mm 0.00 in0.0 mm
11:30 AM 78.0°F25.6°C 71.7°F22.1°C 81% 6.9 mph SSE11.1 kmh SSE 9.2 mph14.8 kmh 29.88 in1011.9 mb - 0.00 in0.0 mm 0.00 in0.0 mm
11:20 AM 77.2°F25.1°C 71.3°F21.8°C 82% 3.5 mph S5.6 kmh S 11.5 mph18.5 kmh 29.89 in1012.2 mb - 0.00 in0.0 mm 0.00 in0.0 mm
11:15 AM 76.8°F24.9°C 70.9°F21.6°C 82% 4.6 mph SE7.4 kmh SE 6.9 mph11.1 kmh 29.89 in1012.2 mb - 0.00 in0.0 mm 0.00 in0.0 mm
11:10 AM 76.6°F24.8°C 70.3°F21.3°C 81% 4.6 mph SE7.4 kmh SE 8.1 mph13.0 kmh 29.88 in1011.9 mb - 0.00 in0.0 mm 0.00 in0.0 mm
11:00 AM 76.1°F24.5°C 70.5°F21.4°C 83% 5.8 mph SSE9.3 kmh SSE 6.9 mph11.1 kmh 29.88 in1011.9 mb - 0.00 in0.0 mm 0.00 in0.0 mm
10:50 AM 75.7°F24.3°C 70.2°F21.2°C 83% 8.1 mph S13.0 kmh S 10.4 mph16.7 kmh 29.88 in1011.9 mb - 0.00 in0.0 mm 0.00 in0.0 mm
10:45 AM 75.5°F24.2°C 70.3°F21.3°C 84% 3.5 mph SW5.6 kmh SW 6.9 mph11.1 kmh 29.88 in1011.9 mb - 0.00 in0.0 mm 0.00 in0.0 mm
10:40 AM 75.1°F23.9°C 69.6°F20.9°C 83% 3.5 mph SE5.6 kmh SE 8.1 mph13.0 kmh 29.88 in1011.9 mb - 0.00 in0.0 mm 0.00 in0.0 mm
10:30 AM 74.8°F23.8°C 69.3°F20.7°C 83% 5.8 mph SSW9.3 kmh SSW 8.1 mph13.0 kmh 29.89 in1012.2 mb - 0.00 in0.0 mm 0.00 in0.0 mm
10:20 AM 74.3°F23.5°C 68.8°F20.4°C 83% 1.2 mph SW1.9 kmh SW 3.5 mph5.6 kmh 29.88 in1011.9 mb - 0.00 in0.0 mm 0.00 in0.0 mm
10:15 AM 74.2°F23.4°C 69.4°F20.8°C 85% 3.5 mph S5.6 kmh S 3.5 mph5.6 kmh 29.88 in1011.9 mb - 0.00 in0.0 mm 0.00 in0.0 mm
10:10 AM 73.9°F23.3°C 69.4°F20.8°C 86% 2.3 mph SSE3.7 kmh SSE 3.5 mph5.6 kmh 29.88 in1011.9 mb - 0.00 in0.0 mm 0.00 in0.0 mm
10:00 AM 72.8°F22.7°C 68.7°F20.4°C 87% 3.5 mph SW5.6 kmh SW 6.9 mph11.1 kmh 29.88 in1011.9 mb - 0.00 in0.0 mm 0.00 in0.0 mm
09:50 AM 71.9°F22.2°C 68.2°F20.1°C 88% 1.2 mph SSW1.9 kmh SSW 3.5 mph5.6 kmh 29.88 in1011.9 mb - 0.00 in0.0 mm 0.00 in0.0 mm
09:45 AM 71.7°F22.1°C 68.2°F20.1°C 89% 1.2 mph S1.9 kmh S 4.6 mph7.4 kmh 29.88 in1011.9 mb - 0.00 in0.0 mm 0.00 in0.0 mm
09:40 AM 71.1°F21.7°C 68.0°F20.0°C 90% 3.5 mph SW5.6 kmh SW 4.6 mph7.4 kmh 29.88 in1011.9 mb - 0.00 in0.0 mm 0.00 in0.0 mm
09:30 AM 70.6°F21.4°C 67.5°F19.7°C 90% 2.3 mph WSW3.7 kmh WSW 5.8 mph9.3 kmh 29.89 in1012.2 mb - 0.00 in0.0 mm 0.00 in0.0 mm
09:20 AM 70.1°F21.2°C 67.6°F19.8°C 92% 3.5 mph S5.6 kmh S 6.9 mph11.1 kmh 29.88 in1011.9 mb - 0.00 in0.0 mm 0.00 in0.0 mm
09:15 AM 69.9°F21.1°C 67.5°F19.7°C 92% 2.3 mph SSW3.7 kmh SSW 4.6 mph7.4 kmh 29.89 in1012.2 mb - 0.00 in0.0 mm 0.00 in0.0 mm
09:10 AM 69.6°F20.9°C 67.2°F19.6°C 92% Calm Calm -- 29.89 in1012.2 mb - 0.00 in0.0 mm 0.00 in0.0 mm
09:00 AM 69.2°F20.7°C 67.1°F19.5°C 93% 1.2 mph SSW1.9 kmh SSW 2.3 mph3.7 kmh 29.88 in1011.9 mb - 0.00 in0.0 mm 0.00 in0.0 mm
08:50 AM 68.8°F20.4°C 67.0°F19.4°C 94% 3.5 mph SSW5.6 kmh SSW 5.8 mph9.3 kmh 29.87 in1011.5 mb - 0.00 in0.0 mm 0.00 in0.0 mm
08:45 AM 68.4°F20.2°C 66.6°F19.2°C 94% 3.5 mph S5.6 kmh S 6.9 mph11.1 kmh 29.88 in1011.9 mb - 0.00 in0.0 mm 0.00 in0.0 mm
08:40 AM 68.1°F20.1°C 66.3°F19.1°C 94% 1.2 mph S1.9 kmh S 2.3 mph3.7 kmh 29.87 in1011.5 mb - 0.00 in0.0 mm 0.00 in0.0 mm
08:30 AM 68.0°F20.0°C 66.2°F19.0°C 94% 1.2 mph S1.9 kmh S 2.3 mph3.7 kmh 29.87 in1011.5 mb - 0.00 in0.0 mm 0.00 in0.0 mm
08:20 AM 67.7°F19.8°C 66.2°F19.0°C 95% Calm Calm 1.2 mph1.9 kmh 29.87 in1011.5 mb - 0.00 in0.0 mm 0.00 in0.0 mm
08:15 AM 67.6°F19.8°C 66.1°F18.9°C 95% 2.3 mph S3.7 kmh S 3.5 mph5.6 kmh 29.87 in1011.5 mb - 0.00 in0.0 mm 0.00 in0.0 mm
08:10 AM 67.2°F19.6°C 65.7°F18.7°C 95% 2.3 mph S3.7 kmh S 3.5 mph5.6 kmh 29.87 in1011.5 mb - 0.00 in0.0 mm 0.00 in0.0 mm
08:00 AM 67.1°F19.5°C 65.9°F18.8°C 96% 1.2 mph S1.9 kmh S 3.5 mph5.6 kmh 29.86 in1011.2 mb - 0.00 in0.0 mm 0.00 in0.0 mm
07:50 AM 67.0°F19.4°C 65.8°F18.8°C 96% 1.2 mph S1.9 kmh S 2.3 mph3.7 kmh 29.86 in1011.2 mb - 0.00 in0.0 mm 0.00 in0.0 mm
07:45 AM 66.9°F19.4°C 65.7°F18.7°C 96% Calm Calm -- 29.86 in1011.2 mb - 0.00 in0.0 mm 0.00 in0.0 mm
07:40 AM 66.8°F19.3°C 65.6°F18.7°C 96% Calm Calm 1.2 mph1.9 kmh 29.86 in1011.2 mb - 0.00 in0.0 mm 0.00 in0.0 mm
07:30 AM 66.5°F19.2°C 65.3°F18.5°C 96% 1.2 mph SSW1.9 kmh SSW 2.3 mph3.7 kmh 29.85 in1010.8 mb - 0.00 in0.0 mm 0.00 in0.0 mm
07:20 AM 66.3°F19.1°C 65.1°F18.4°C 96% 2.3 mph S3.7 kmh S 6.9 mph11.1 kmh 29.85 in1010.8 mb - 0.00 in0.0 mm 0.00 in0.0 mm
07:15 AM 66.3°F19.1°C 65.1°F18.4°C 96% 2.3 mph SW3.7 kmh SW 2.3 mph3.7 kmh 29.85 in1010.8 mb - 0.00 in0.0 mm 0.00 in0.0 mm
07:10 AM 66.3°F19.1°C 65.1°F18.4°C 96% 1.2 mph SW1.9 kmh SW 3.5 mph5.6 kmh 29.85 in1010.8 mb - 0.00 in0.0 mm 0.00 in0.0 mm
07:00 AM 66.2°F19.0°C 65.0°F18.3°C 96% 1.2 mph SW1.9 kmh SW 3.5 mph5.6 kmh 29.84 in1010.5 mb - 0.00 in0.0 mm 0.00 in0.0 mm
06:50 AM 66.2°F19.0°C 64.7°F18.2°C 95% Calm Calm 1.2 mph1.9 kmh 29.84 in1010.5 mb - 0.00 in0.0 mm 0.00 in0.0 mm
06:45 AM 66.1°F18.9°C 64.6°F18.1°C 95% Calm Calm 1.2 mph1.9 kmh 29.84 in1010.5 mb - 0.00 in0.0 mm 0.00 in0.0 mm
06:40 AM 66.2°F19.0°C 64.7°F18.2°C 95% 1.2 mph S1.9 kmh S 3.5 mph5.6 kmh 29.82 in1009.8 mb - 0.00 in0.0 mm 0.00 in0.0 mm
06:30 AM 66.1°F18.9°C 64.7°F18.2°C 95% 1.2 mph WSW1.9 kmh WSW 2.3 mph3.7 kmh 29.84 in1010.5 mb - 0.00 in0.0 mm 0.00 in0.0 mm
06:20 AM 66.1°F18.9°C 64.6°F18.1°C 95% 1.2 mph W1.9 kmh W 1.2 mph1.9 kmh 29.83 in1010.2 mb - 0.00 in0.0 mm 0.00 in0.0 mm
06:15 AM 66.1°F18.9°C 64.6°F18.1°C 95% 2.3 mph W3.7 kmh W 4.6 mph7.4 kmh 29.83 in1010.2 mb - 0.00 in0.0 mm 0.00 in0.0 mm
06:10 AM 66.0°F18.9°C 64.5°F18.1°C 95% 1.2 mph WSW1.9 kmh WSW 5.8 mph9.3 kmh 29.82 in1009.8 mb - 0.00 in0.0 mm 0.00 in0.0 mm
06:00 AM 65.8°F18.8°C 64.4°F18.0°C 95% 8.1 mph SSE13.0 kmh SSE 9.2 mph14.8 kmh 29.79 in1008.8 mb - 0.00 in0.0 mm 0.00 in0.0 mm
05:50 AM 65.8°F18.8°C 64.3°F17.9°C 95% 9.2 mph SE14.8 kmh SE 12.7 mph20.4 kmh 29.78 in1008.5 mb - 0.00 in0.0 mm 0.00 in0.0 mm
05:45 AM 65.8°F18.8°C 64.3°F17.9°C 95% 10.4 mph SE16.7 kmh SE 11.5 mph18.5 kmh 29.78 in1008.5 mb - 0.00 in0.0 mm 0.00 in0.0 mm
05:40 AM 65.8°F18.8°C 64.4°F18.0°C 95% 5.8 mph SSE9.3 kmh SSE 9.2 mph14.8 kmh 29.78 in1008.5 mb - 0.00 in0.0 mm 0.00 in0.0 mm
05:30 AM 65.9°F18.8°C 64.4°F18.0°C 95% 5.8 mph S9.3 kmh S 6.9 mph11.1 kmh 29.78 in1008.5 mb - 0.00 in0.0 mm 0.00 in0.0 mm
05:20 AM 66.1°F18.9°C 64.6°F18.1°C 95% 3.5 mph SE5.6 kmh SE 8.1 mph13.0 kmh 29.77 in1008.1 mb - 0.00 in0.0 mm 0.00 in0.0 mm
05:15 AM 66.2°F19.0°C 64.7°F18.2°C 95% 4.6 mph SSE7.4 kmh SSE 6.9 mph11.1 kmh 29.77 in1008.1 mb - 0.00 in0.0 mm 0.00 in0.0 mm
05:10 AM 66.3°F19.1°C 64.8°F18.2°C 95% 4.6 mph S7.4 kmh S 11.5 mph18.5 kmh 29.77 in1008.1 mb - 0.00 in0.0 mm 0.00 in0.0 mm
05:00 AM 66.4°F19.1°C 64.9°F18.3°C 95% 3.5 mph SE5.6 kmh SE 4.6 mph7.4 kmh 29.77 in1008.1 mb - 0.00 in0.0 mm 0.00 in0.0 mm
04:50 AM 66.3°F19.1°C 64.8°F18.2°C 95% 3.5 mph S5.6 kmh S 5.8 mph9.3 kmh 29.77 in1008.1 mb - 0.00 in0.0 mm 0.00 in0.0 mm
04:45 AM 66.3°F19.1°C 64.8°F18.2°C 95% 5.8 mph SSW9.3 kmh SSW 10.4 mph16.7 kmh 29.77 in1008.1 mb - 0.00 in0.0 mm 0.00 in0.0 mm
04:40 AM 66.3°F19.1°C 64.8°F18.2°C 95% 5.8 mph S9.3 kmh S 9.2 mph14.8 kmh 29.77 in1008.1 mb - 0.00 in0.0 mm 0.00 in0.0 mm
04:30 AM 66.4°F19.1°C 65.0°F18.3°C 95% 6.9 mph S11.1 kmh S 8.1 mph13.0 kmh 29.76 in1007.8 mb - 0.00 in0.0 mm 0.00 in0.0 mm
04:20 AM 66.4°F19.1°C 64.9°F18.3°C 95% 3.5 mph SSE5.6 kmh SSE 6.9 mph11.1 kmh 29.76 in1007.8 mb - 0.00 in0.0 mm 0.00 in0.0 mm
04:15 AM 66.3°F19.1°C 64.9°F18.3°C 95% 2.3 mph S3.7 kmh S 4.6 mph7.4 kmh 29.76 in1007.8 mb - 0.00 in0.0 mm 0.00 in0.0 mm
04:10 AM 66.4°F19.1°C 64.9°F18.3°C 95% 8.1 mph SSE13.0 kmh SSE 13.8 mph22.2 kmh 29.76 in1007.8 mb - 0.00 in0.0 mm 0.00 in0.0 mm
04:00 AM 66.4°F19.1°C 64.9°F18.3°C 95% 5.8 mph S9.3 kmh S 8.1 mph13.0 kmh 29.76 in1007.8 mb - 0.00 in0.0 mm 0.00 in0.0 mm
03:50 AM 66.5°F19.2°C 65.0°F18.3°C 95% 5.8 mph SSE9.3 kmh SSE 5.8 mph9.3 kmh 29.76 in1007.8 mb - 0.00 in0.0 mm 0.00 in0.0 mm
03:45 AM 66.5°F19.2°C 65.0°F18.3°C 95% 3.5 mph SSE5.6 kmh SSE 8.1 mph13.0 kmh 29.76 in1007.8 mb - 0.00 in0.0 mm 0.00 in0.0 mm
03:40 AM 66.5°F19.2°C 65.0°F18.3°C 95% 6.9 mph S11.1 kmh S 11.5 mph18.5 kmh 29.76 in1007.8 mb - 0.00 in0.0 mm 0.00 in0.0 mm
03:30 AM 66.4°F19.1°C 64.9°F18.3°C 95% 5.8 mph SE9.3 kmh SE 5.8 mph9.3 kmh 29.76 in1007.8 mb - 0.00 in0.0 mm 0.00 in0.0 mm
03:20 AM 66.3°F19.1°C 64.8°F18.2°C 95% 5.8 mph SSE9.3 kmh SSE 8.1 mph13.0 kmh 29.76 in1007.8 mb - 0.00 in0.0 mm 0.00 in0.0 mm
03:15 AM 66.3°F19.1°C 64.8°F18.2°C 95% 3.5 mph SE5.6 kmh SE 8.1 mph13.0 kmh 29.76 in1007.8 mb - 0.00 in0.0 mm 0.00 in0.0 mm
03:10 AM 66.2°F19.0°C 64.7°F18.2°C 95% 4.6 mph SSE7.4 kmh SSE 5.8 mph9.3 kmh 29.76 in1007.8 mb - 0.00 in0.0 mm 0.00 in0.0 mm
03:00 AM 66.1°F18.9°C 64.6°F18.1°C 95% 3.5 mph SSE5.6 kmh SSE 4.6 mph7.4 kmh 29.75 in1007.5 mb - 0.00 in0.0 mm 0.00 in0.0 mm
02:50 AM 66.0°F18.9°C 64.5°F18.1°C 95% 4.6 mph S7.4 kmh S 10.4 mph16.7 kmh 29.76 in1007.8 mb - 0.00 in0.0 mm 0.00 in0.0 mm
02:45 AM 65.9°F18.8°C 64.4°F18.0°C 95% 4.6 mph SSE7.4 kmh SSE 6.9 mph11.1 kmh 29.75 in1007.5 mb - 0.00 in0.0 mm 0.00 in0.0 mm
02:40 AM 65.8°F18.8°C 64.3°F17.9°C 95% 3.5 mph SSE5.6 kmh SSE 8.1 mph13.0 kmh 29.75 in1007.5 mb - 0.00 in0.0 mm 0.00 in0.0 mm
02:30 AM 65.3°F18.5°C 63.8°F17.7°C 95% 5.8 mph SSE9.3 kmh SSE 6.9 mph11.1 kmh 29.75 in1007.5 mb - 0.00 in0.0 mm 0.00 in0.0 mm
02:20 AM 65.0°F18.3°C 63.2°F17.3°C 94% 3.5 mph SE5.6 kmh SE 5.8 mph9.3 kmh 29.75 in1007.5 mb - 0.00 in0.0 mm 0.00 in0.0 mm
02:15 AM 65.0°F18.3°C 63.2°F17.3°C 94% 2.3 mph SE3.7 kmh SE 4.6 mph7.4 kmh 29.75 in1007.5 mb - 0.00 in0.0 mm 0.00 in0.0 mm
02:10 AM 65.0°F18.3°C 63.3°F17.4°C 94% 3.5 mph ESE5.6 kmh ESE 5.8 mph9.3 kmh 29.75 in1007.5 mb - 0.00 in0.0 mm 0.00 in0.0 mm
02:00 AM 65.1°F18.4°C 63.3°F17.4°C 94% 3.5 mph SE5.6 kmh SE 5.8 mph9.3 kmh 29.75 in1007.5 mb - 0.00 in0.0 mm 0.00 in0.0 mm
01:50 AM 65.3°F18.5°C 63.5°F17.5°C 94% 3.5 mph ESE5.6 kmh ESE 4.6 mph7.4 kmh 29.75 in1007.5 mb - 0.00 in0.0 mm 0.00 in0.0 mm
01:45 AM 65.3°F18.5°C 63.5°F17.5°C 94% 3.5 mph SE5.6 kmh SE 5.8 mph9.3 kmh 29.75 in1007.5 mb - 0.00 in0.0 mm 0.00 in0.0 mm
01:40 AM 65.3°F18.5°C 63.5°F17.5°C 94% 3.5 mph SSE5.6 kmh SSE 5.8 mph9.3 kmh 29.75 in1007.5 mb - 0.00 in0.0 mm 0.00 in0.0 mm
01:30 AM 65.2°F18.4°C 63.2°F17.3°C 93% 3.5 mph ESE5.6 kmh ESE 5.8 mph9.3 kmh 29.76 in1007.8 mb - 0.00 in0.0 mm 0.00 in0.0 mm
01:20 AM 65.3°F18.5°C 63.2°F17.3°C 93% 4.6 mph SE7.4 kmh SE 6.9 mph11.1 kmh 29.75 in1007.5 mb - 0.00 in0.0 mm 0.00 in0.0 mm
01:15 AM 65.1°F18.4°C 63.0°F17.2°C 93% 4.6 mph SE7.4 kmh SE 6.9 mph11.1 kmh 29.75 in1007.5 mb - 0.00 in0.0 mm 0.00 in0.0 mm
01:10 AM 65.1°F18.4°C 63.0°F17.2°C 93% 4.6 mph SE7.4 kmh SE 6.9 mph11.1 kmh 29.75 in1007.5 mb - 0.00 in0.0 mm 0.00 in0.0 mm
01:00 AM 65.4°F18.6°C 63.0°F17.2°C 92% 4.6 mph E7.4 kmh E 5.8 mph9.3 kmh 29.75 in1007.5 mb - 0.00 in0.0 mm 0.00 in0.0 mm
12:50 AM 65.8°F18.8°C 63.4°F17.4°C 92% 4.6 mph E7.4 kmh E 8.1 mph13.0 kmh 29.75 in1007.5 mb - 0.00 in0.0 mm 0.00 in0.0 mm
12:45 AM 65.9°F18.8°C 63.5°F17.5°C 92% 2.3 mph E3.7 kmh E 4.6 mph7.4 kmh 29.75 in1007.5 mb - 0.00 in0.0 mm 0.00 in0.0 mm
12:40 AM 66.0°F18.9°C 63.3°F17.4°C 91% 2.3 mph SE3.7 kmh SE 3.5 mph5.6 kmh 29.74 in1007.1 mb - 0.00 in0.0 mm 0.00 in0.0 mm
12:30 AM 66.1°F18.9°C 63.4°F17.4°C 91% 1.2 mph SE1.9 kmh SE 2.3 mph3.7 kmh 29.74 in1007.1 mb - 0.00 in0.0 mm 0.00 in0.0 mm
12:20 AM 66.0°F18.9°C 63.3°F17.4°C 91% 1.2 mph SSE1.9 kmh SSE 3.5 mph5.6 kmh 29.74 in1007.1 mb - 0.00 in0.0 mm 0.00 in0.0 mm
12:15 AM 66.0°F18.9°C 63.0°F17.2°C 90% Calm Calm -- 29.74 in1007.1 mb - 0.00 in0.0 mm 0.00 in0.0 mm
12:10 AM 66.1°F18.9°C 63.0°F17.2°C 90% 2.3 mph SSE3.7 kmh SSE 3.5 mph5.6 kmh 29.74 in1007.1 mb - 0.00 in0.0 mm 0.00 in0.0 mm
12:00 AM 66.3°F19.1°C 62.9°F17.2°C 89% 1.2 mph S1.9 kmh S 2.3 mph3.7 kmh 29.74 in1007.1 mb - 0.00 in0.0 mm 0.00 in0.0 mm